This is the latest recevied weather packets stored in our database for station/object HP1MRA-15. If no packets are shown the sender has not sent any weather packets the latest 10 day(s).
| Time | Temp. | Humidity | Pressure | Rain* | Wind** | Luminosity | Snow |
|---|---|---|---|---|---|---|---|
| 1777817926 | 29.44° C | 75% | 1004.8 hPa | 0 mm | - | - | - |
| 1777817627 | 29.44° C | 72% | 1004.8 hPa | 0 mm | - | - | - |
| 1777817326 | 30° C | 70% | 1004.8 hPa | 0 mm | - | - | - |
| 1777817026 | 30.56° C | 70% | 1004.8 hPa | 0 mm | - | - | - |
| 1777816727 | 30.56° C | 69% | 1004.8 hPa | 0 mm | - | - | - |
| 1777816426 | 30° C | 71% | 1004.9 hPa | 0 mm | - | - | - |
| 1777816126 | 30.56° C | 69% | 1004.9 hPa | 0 mm | - | - | - |
| 1777815826 | 30.56° C | 70% | 1004.9 hPa | 0 mm | - | - | - |
| 1777815526 | 30° C | 71% | 1004.9 hPa | 0 mm | - | - | - |
| 1777815226 | 29.44° C | 72% | 1004.9 hPa | 0 mm | - | - | - |
| 1777814926 | 29.44° C | 73% | 1005 hPa | 0 mm | - | - | - |
| 1777814626 | 28.89° C | 75% | 1005 hPa | 0 mm | - | - | - |
| 1777814326 | 28.33° C | 75% | 1004.9 hPa | 0 mm | - | - | - |
| 1777814026 | 27.78° C | 77% | 1004.9 hPa | 0 mm | - | - | - |
| 1777813725 | 27.22° C | 79% | 1004.9 hPa | 0 mm | - | - | - |
| 1777813426 | 26.67° C | 82% | 1004.9 hPa | 0 mm | - | - | - |
| 1777813126 | 26.11° C | 82% | 1004.9 hPa | 0 mm | - | - | - |
| 1777812824 | 25.56° C | 82% | 1004.9 hPa | 0 mm | - | - | - |
| 1777812526 | 25.56° C | 83% | 1004.9 hPa | 0 mm | - | - | - |
| 1777812225 | 25.56° C | 83% | 1004.7 hPa | 0 mm | - | - | - |
| 1777811926 | 25.56° C | 83% | 1004.6 hPa | 0 mm | - | - | - |
| 1777811626 | 25° C | 84% | 1004.7 hPa | 0 mm | - | - | - |
| 1777811326 | 25° C | 84% | 1004.6 hPa | 0 mm | - | - | - |
| 1777811026 | 25° C | 85% | 1004.4 hPa | 0 mm | - | - | - |
| 1777810725 | 25° C | 85% | 1004.3 hPa | 0 mm | - | - | - |
* Rain latest hour (hover to see other rain measurements)
** Current wind speed in m/s (hover to see current wind gust speed)